Fecha, hora, temperatura, viento dirección y velocidad, humedad y presión.

  • 19-03-2019 23:00:00 | 9.50°C | Nordeste |13.00 km/h | 68.00% | 1023.60 hPa
  • 19-03-2019 22:00:00 | 8.30°C | Norte |12.00 km/h | 79.00% | 1023.10 hPa
  • 19-03-2019 21:00:00 | 8.60°C | Nordeste |6.00 km/h | 80.00% | 1022.80 hPa
  • 19-03-2019 20:00:00 | 8.80°C | Nordeste |11.00 km/h | 76.00% | 1022.70 hPa
  • 19-03-2019 19:00:00 | 10.60°C | Nordeste |15.00 km/h | 64.00% | 1022.20 hPa
  • 19-03-2019 18:00:00 | 11.20°C | Norte |15.00 km/h | 62.00% | 1021.40 hPa
  • 19-03-2019 17:00:00 | 11.80°C | Nordeste |22.00 km/h | 62.00% | 1021.10 hPa
  • 19-03-2019 16:00:00 | 12.10°C | Nordeste |9.00 km/h | 66.00% | 1020.80 hPa
  • 19-03-2019 15:00:00 | 10.50°C | Nordeste |19.00 km/h | 78.00% | 1021.10 hPa
  • 19-03-2019 14:00:00 | 10.70°C | Este |12.00 km/h | 80.00% | 1020.90 hPa
  • 19-03-2019 13:00:00 | 11.90°C | Nordeste |13.00 km/h | 62.00% | 1021.00 hPa
  • 19-03-2019 12:00:00 | 12.10°C | Nordeste |12.00 km/h | 70.00% | 1021.00 hPa
  • 19-03-2019 11:00:00 | 11.30°C | Nordeste |7.00 km/h | 74.00% | 1021.10 hPa
  • 19-03-2019 10:00:00 | 9.80°C | Norte |4.00 km/h | 87.00% | 1020.80 hPa
  • 19-03-2019 09:00:00 | 9.70°C | Noroeste |4.00 km/h | 83.00% | 1020.80 hPa
  • 19-03-2019 08:00:00 | 9.50°C | Norte |5.00 km/h | 83.00% | 1020.40 hPa
  • 19-03-2019 07:00:00 | 9.30°C | Sur |9.00 km/h | 86.00% | 1020.50 hPa
  • 19-03-2019 06:00:00 | 8.90°C | Oeste |9.00 km/h | 89.00% | 1020.50 hPa
  • 19-03-2019 05:00:00 | 7.60°C | Calma |0.00 km/h | 89.00% | 1020.40 hPa
  • 19-03-2019 04:00:00 | 6.50°C | Este |2.00 km/h | 89.00% | 1020.40 hPa
  • 19-03-2019 03:00:00 | 7.40°C | Norte |3.00 km/h | 88.00% | 1021.20 hPa
  • 19-03-2019 02:00:00 | 6.50°C | Norte |2.00 km/h | 90.00% | 1021.90 hPa
  • 19-03-2019 01:00:00 | 6.30°C | Noroeste |4.00 km/h | 89.00% | 1022.10 hPa
  • 19-03-2019 00:00:00 | 6.40°C | Norte |3.00 km/h | 88.00% | 1022.20 hPa
    • diseño web asturias Información sobre el estado de las mareas, altura de la marejada, temperatura del agua y otros datos de Gijón en Asturias.

      Surf Gijón